Livingston, Montana
Current Conditions -  °F | °C
As of 1:53 PM on Wednesday 17 Dec 2014 (Local Time) from KLVM Reporting Station
Overcast Overcast  
Wind Chill: 33°   Ceiling: 6000
Heat Index: 40°   Visibility: 10mi
Dew Point: 27°   Wind: 12mph
Humidity: 60%   Direction: 270°W
Pressure: 29.88"   Gusts: NA
Location:  45.66°N, 110.56°W
Report Text: KLVM 172053Z AUTO 27010KT 10SM OVC060 04/M03 A2988 RMK AO2 SLP146 T00441028 58015
Loading
Personal Weather Stations






























Interactive Weather Map New forecast layout! Learn more

10-Day Weather Forecast

Advertisements
Track Severe Weather on mobile